TAF KADF
KADF 270525Z 2706/2806 VRB05KT P6SM SCT250 FM271900 22007KT P6SM BKN250 FM280100 VRB04KT P6SM OVC250=
METAR KADF
WC KADF
WS KADF
WV KADF